< < Back
Terminal Aerodrome Forecast


Current Version              Previous Versions:   1  2  3  4  5  6  7  8  9  

Terminal Aerodrome Forecast

704
FTUS42 KGSP 242329
TAFGSP
TAF
KGSP 242329Z 2500/2524 13006KT P6SM FEW060
     FM250500 15004KT P6SM SCT040
     FM251000 07003KT P6SM SCT017 BKN030
     FM251300 13003KT P6SM BKN017 OVC030
     FM251700 19007KT P6SM SCT040 BKN045 PROB30 2521/2524 4SM TSRA
      BKN030CB=

Latest METAR

541
SAUS70 KWBC 250500 RRB
MTRGSP
METAR KGSP 250453Z AUTO 16006KT 10SM CLR 17/13 A3031 RMK AO2 SLP255
T01720133 402720128


USA.gov is the U.S. government's official web portal to all federal, state and local government web resources and services.